<?xml version="1.0" encoding="UTF-8" standalone="no" ?>
<gpx xmlns="http://www.topografix.com/GPX/1/1" xmlns:xsi="http://www.w3.org/2001/XMLSchema-instance" xsi:schemaLocation="http://www.topografix.com/GPX/1/1 http://www.topografix.com/GPX/1/1/gpx.xsd" version="1.1" creator="VisuGPX - https://www.visugpx.com">
  <metadata>
    <name>GUIRY CLERY NUCOURT COMMENY</name>
    <desc><![CDATA[FAIT]]></desc>
  </metadata>
  <trk>
    <name><![CDATA[Guiry-en-Vexin-Cléry-en-Vexin-Nucourt-Commeny-18398811]]></name>
    <trkseg>
      <trkpt lat="49.10874" lon="1.85139">
        <ele>98</ele>
        <time>2024-05-05T12:25:38Z</time>
      </trkpt>
      <trkpt lat="49.10908" lon="1.85079">
        <ele>96</ele>
        <time>2024-05-05T12:26:47Z</time>
      </trkpt>
      <trkpt lat="49.10982" lon="1.85167">
        <ele>105</ele>
        <time>2024-05-05T12:28:52Z</time>
      </trkpt>
      <trkpt lat="49.11005" lon="1.85152">
        <ele>107</ele>
        <time>2024-05-05T12:29:26Z</time>
      </trkpt>
      <trkpt lat="49.11034" lon="1.85143">
        <ele>111</ele>
        <time>2024-05-05T12:30:05Z</time>
      </trkpt>
      <trkpt lat="49.11137" lon="1.85093">
        <ele>118</ele>
        <time>2024-05-05T12:32:30Z</time>
      </trkpt>
      <trkpt lat="49.11153" lon="1.85091">
        <ele>120</ele>
        <time>2024-05-05T12:32:51Z</time>
      </trkpt>
      <trkpt lat="49.11175" lon="1.85075">
        <ele>119</ele>
        <time>2024-05-05T12:33:23Z</time>
      </trkpt>
      <trkpt lat="49.11203" lon="1.85069">
        <ele>119</ele>
        <time>2024-05-05T12:34:01Z</time>
      </trkpt>
      <trkpt lat="49.11233" lon="1.85073">
        <ele>121</ele>
        <time>2024-05-05T12:34:41Z</time>
      </trkpt>
      <trkpt lat="49.11313" lon="1.85094">
        <ele>125</ele>
        <time>2024-05-05T12:36:30Z</time>
      </trkpt>
      <trkpt lat="49.11347" lon="1.8511">
        <ele>128</ele>
        <time>2024-05-05T12:37:17Z</time>
      </trkpt>
      <trkpt lat="49.11392" lon="1.85124">
        <ele>131</ele>
        <time>2024-05-05T12:38:18Z</time>
      </trkpt>
      <trkpt lat="49.11437" lon="1.85123">
        <ele>132</ele>
        <time>2024-05-05T12:39:19Z</time>
      </trkpt>
      <trkpt lat="49.1145" lon="1.85106">
        <ele>132</ele>
        <time>2024-05-05T12:39:41Z</time>
      </trkpt>
      <trkpt lat="49.11459" lon="1.85082">
        <ele>130</ele>
        <time>2024-05-05T12:40:06Z</time>
      </trkpt>
      <trkpt lat="49.11477" lon="1.85025">
        <ele>129</ele>
        <time>2024-05-05T12:41:01Z</time>
      </trkpt>
      <trkpt lat="49.11485" lon="1.85006">
        <ele>129</ele>
        <time>2024-05-05T12:41:21Z</time>
      </trkpt>
      <trkpt lat="49.11527" lon="1.84954">
        <ele>131</ele>
        <time>2024-05-05T12:42:33Z</time>
      </trkpt>
      <trkpt lat="49.11538" lon="1.8495">
        <ele>132</ele>
        <time>2024-05-05T12:42:48Z</time>
      </trkpt>
      <trkpt lat="49.11589" lon="1.84959">
        <ele>138</ele>
        <time>2024-05-05T12:43:56Z</time>
      </trkpt>
      <trkpt lat="49.11651" lon="1.84972">
        <ele>138</ele>
        <time>2024-05-05T12:45:20Z</time>
      </trkpt>
      <trkpt lat="49.11694" lon="1.84979">
        <ele>138</ele>
        <time>2024-05-05T12:46:18Z</time>
      </trkpt>
      <trkpt lat="49.11707" lon="1.84979">
        <ele>137</ele>
        <time>2024-05-05T12:46:35Z</time>
      </trkpt>
      <trkpt lat="49.1182" lon="1.8494">
        <ele>133</ele>
        <time>2024-05-05T12:49:09Z</time>
      </trkpt>
      <trkpt lat="49.11841" lon="1.84936">
        <ele>133</ele>
        <time>2024-05-05T12:49:38Z</time>
      </trkpt>
      <trkpt lat="49.11859" lon="1.84939">
        <ele>133</ele>
        <time>2024-05-05T12:50:02Z</time>
      </trkpt>
      <trkpt lat="49.11871" lon="1.84939">
        <ele>133</ele>
        <time>2024-05-05T12:50:18Z</time>
      </trkpt>
      <trkpt lat="49.11915" lon="1.84924">
        <ele>134</ele>
        <time>2024-05-05T12:51:18Z</time>
      </trkpt>
      <trkpt lat="49.1194" lon="1.84902">
        <ele>135</ele>
        <time>2024-05-05T12:51:57Z</time>
      </trkpt>
      <trkpt lat="49.11947" lon="1.84891">
        <ele>135</ele>
        <time>2024-05-05T12:52:10Z</time>
      </trkpt>
      <trkpt lat="49.12011" lon="1.84769">
        <ele>139</ele>
        <time>2024-05-05T12:54:26Z</time>
      </trkpt>
      <trkpt lat="49.12077" lon="1.84668">
        <ele>142</ele>
        <time>2024-05-05T12:56:31Z</time>
      </trkpt>
      <trkpt lat="49.12169" lon="1.84544">
        <ele>148</ele>
        <time>2024-05-05T12:59:15Z</time>
      </trkpt>
      <trkpt lat="49.12198" lon="1.8451">
        <ele>149</ele>
        <time>2024-05-05T13:00:04Z</time>
      </trkpt>
      <trkpt lat="49.12238" lon="1.84474">
        <ele>151</ele>
        <time>2024-05-05T13:01:06Z</time>
      </trkpt>
      <trkpt lat="49.12324" lon="1.84419">
        <ele>155</ele>
        <time>2024-05-05T13:03:10Z</time>
      </trkpt>
      <trkpt lat="49.12368" lon="1.84377">
        <ele>158</ele>
        <time>2024-05-05T13:04:19Z</time>
      </trkpt>
      <trkpt lat="49.12456" lon="1.84243">
        <ele>167</ele>
        <time>2024-05-05T13:07:05Z</time>
      </trkpt>
      <trkpt lat="49.12466" lon="1.84261">
        <ele>167</ele>
        <time>2024-05-05T13:07:26Z</time>
      </trkpt>
      <trkpt lat="49.12492" lon="1.84287">
        <ele>166</ele>
        <time>2024-05-05T13:08:07Z</time>
      </trkpt>
      <trkpt lat="49.12499" lon="1.8429">
        <ele>167</ele>
        <time>2024-05-05T13:08:17Z</time>
      </trkpt>
      <trkpt lat="49.12631" lon="1.84064">
        <ele>175</ele>
        <time>2024-05-05T13:12:41Z</time>
      </trkpt>
      <trkpt lat="49.12635" lon="1.84072">
        <ele>175</ele>
        <time>2024-05-05T13:12:50Z</time>
      </trkpt>
      <trkpt lat="49.12657" lon="1.84093">
        <ele>174</ele>
        <time>2024-05-05T13:13:25Z</time>
      </trkpt>
      <trkpt lat="49.12667" lon="1.84099">
        <ele>173</ele>
        <time>2024-05-05T13:13:39Z</time>
      </trkpt>
      <trkpt lat="49.12685" lon="1.84105">
        <ele>172</ele>
        <time>2024-05-05T13:14:04Z</time>
      </trkpt>
      <trkpt lat="49.12696" lon="1.84115">
        <ele>171</ele>
        <time>2024-05-05T13:14:21Z</time>
      </trkpt>
      <trkpt lat="49.12702" lon="1.84116">
        <ele>171</ele>
        <time>2024-05-05T13:14:29Z</time>
      </trkpt>
      <trkpt lat="49.12741" lon="1.84046">
        <ele>170</ele>
        <time>2024-05-05T13:15:49Z</time>
      </trkpt>
      <trkpt lat="49.12762" lon="1.84023">
        <ele>169</ele>
        <time>2024-05-05T13:16:24Z</time>
      </trkpt>
      <trkpt lat="49.12828" lon="1.83974">
        <ele>170</ele>
        <time>2024-05-05T13:18:01Z</time>
      </trkpt>
      <trkpt lat="49.12839" lon="1.83969">
        <ele>170</ele>
        <time>2024-05-05T13:18:17Z</time>
      </trkpt>
      <trkpt lat="49.12848" lon="1.83963">
        <ele>169</ele>
        <time>2024-05-05T13:18:30Z</time>
      </trkpt>
      <trkpt lat="49.12894" lon="1.83919">
        <ele>168</ele>
        <time>2024-05-05T13:19:42Z</time>
      </trkpt>
      <trkpt lat="49.12902" lon="1.83922">
        <ele>168</ele>
        <time>2024-05-05T13:19:53Z</time>
      </trkpt>
      <trkpt lat="49.13033" lon="1.84003">
        <ele>153</ele>
        <time>2024-05-05T13:23:02Z</time>
      </trkpt>
      <trkpt lat="49.13042" lon="1.84007">
        <ele>153</ele>
        <time>2024-05-05T13:23:14Z</time>
      </trkpt>
      <trkpt lat="49.13044" lon="1.84017">
        <ele>153</ele>
        <time>2024-05-05T13:23:24Z</time>
      </trkpt>
      <trkpt lat="49.13048" lon="1.84021">
        <ele>152</ele>
        <time>2024-05-05T13:23:30Z</time>
      </trkpt>
      <trkpt lat="49.13052" lon="1.8402">
        <ele>152</ele>
        <time>2024-05-05T13:23:35Z</time>
      </trkpt>
      <trkpt lat="49.13057" lon="1.84012">
        <ele>152</ele>
        <time>2024-05-05T13:23:45Z</time>
      </trkpt>
      <trkpt lat="49.13086" lon="1.84026">
        <ele>150</ele>
        <time>2024-05-05T13:24:26Z</time>
      </trkpt>
      <trkpt lat="49.1321" lon="1.84103">
        <ele>146</ele>
        <time>2024-05-05T13:27:24Z</time>
      </trkpt>
      <trkpt lat="49.13246" lon="1.84125">
        <ele>145</ele>
        <time>2024-05-05T13:28:16Z</time>
      </trkpt>
      <trkpt lat="49.13352" lon="1.84191">
        <ele>144</ele>
        <time>2024-05-05T13:30:49Z</time>
      </trkpt>
      <trkpt lat="49.13371" lon="1.84206">
        <ele>144</ele>
        <time>2024-05-05T13:31:17Z</time>
      </trkpt>
      <trkpt lat="49.13391" lon="1.84225">
        <ele>143</ele>
        <time>2024-05-05T13:31:49Z</time>
      </trkpt>
      <trkpt lat="49.13538" lon="1.84384">
        <ele>140</ele>
        <time>2024-05-05T13:35:49Z</time>
      </trkpt>
      <trkpt lat="49.1358" lon="1.84428">
        <ele>140</ele>
        <time>2024-05-05T13:36:57Z</time>
      </trkpt>
      <trkpt lat="49.13609" lon="1.84453">
        <ele>140</ele>
        <time>2024-05-05T13:37:41Z</time>
      </trkpt>
      <trkpt lat="49.13683" lon="1.84511">
        <ele>138</ele>
        <time>2024-05-05T13:39:32Z</time>
      </trkpt>
      <trkpt lat="49.13719" lon="1.84396">
        <ele>138</ele>
        <time>2024-05-05T13:41:24Z</time>
      </trkpt>
      <trkpt lat="49.13747" lon="1.84327">
        <ele>137</ele>
        <time>2024-05-05T13:42:34Z</time>
      </trkpt>
      <trkpt lat="49.13786" lon="1.84253">
        <ele>136</ele>
        <time>2024-05-05T13:43:57Z</time>
      </trkpt>
      <trkpt lat="49.13825" lon="1.84138">
        <ele>136</ele>
        <time>2024-05-05T13:45:51Z</time>
      </trkpt>
      <trkpt lat="49.13854" lon="1.84072">
        <ele>137</ele>
        <time>2024-05-05T13:47:00Z</time>
      </trkpt>
      <trkpt lat="49.13886" lon="1.84003">
        <ele>138</ele>
        <time>2024-05-05T13:48:14Z</time>
      </trkpt>
      <trkpt lat="49.13946" lon="1.83868">
        <ele>141</ele>
        <time>2024-05-05T13:50:36Z</time>
      </trkpt>
      <trkpt lat="49.13959" lon="1.83835">
        <ele>141</ele>
        <time>2024-05-05T13:51:10Z</time>
      </trkpt>
      <trkpt lat="49.14492" lon="1.8418">
        <ele>131</ele>
        <time>2024-05-05T14:04:02Z</time>
      </trkpt>
      <trkpt lat="49.14508" lon="1.84189">
        <ele>131</ele>
        <time>2024-05-05T14:04:25Z</time>
      </trkpt>
      <trkpt lat="49.14628" lon="1.84269">
        <ele>129</ele>
        <time>2024-05-05T14:07:20Z</time>
      </trkpt>
      <trkpt lat="49.15303" lon="1.84696">
        <ele>122</ele>
        <time>2024-05-05T14:23:35Z</time>
      </trkpt>
      <trkpt lat="49.15626" lon="1.84894">
        <ele>114</ele>
        <time>2024-05-05T14:31:19Z</time>
      </trkpt>
      <trkpt lat="49.15639" lon="1.84902">
        <ele>114</ele>
        <time>2024-05-05T14:31:38Z</time>
      </trkpt>
      <trkpt lat="49.15741" lon="1.84935">
        <ele>115</ele>
        <time>2024-05-05T14:33:57Z</time>
      </trkpt>
      <trkpt lat="49.15732" lon="1.84997">
        <ele>115</ele>
        <time>2024-05-05T14:34:52Z</time>
      </trkpt>
      <trkpt lat="49.15733" lon="1.8502">
        <ele>115</ele>
        <time>2024-05-05T14:35:12Z</time>
      </trkpt>
      <trkpt lat="49.15737" lon="1.85031">
        <ele>115</ele>
        <time>2024-05-05T14:35:23Z</time>
      </trkpt>
      <trkpt lat="49.15743" lon="1.85041">
        <ele>115</ele>
        <time>2024-05-05T14:35:35Z</time>
      </trkpt>
      <trkpt lat="49.15761" lon="1.85065">
        <ele>114</ele>
        <time>2024-05-05T14:36:07Z</time>
      </trkpt>
      <trkpt lat="49.15768" lon="1.85078">
        <ele>114</ele>
        <time>2024-05-05T14:36:22Z</time>
      </trkpt>
      <trkpt lat="49.15777" lon="1.85102">
        <ele>114</ele>
        <time>2024-05-05T14:36:46Z</time>
      </trkpt>
      <trkpt lat="49.15782" lon="1.85124">
        <ele>115</ele>
        <time>2024-05-05T14:37:06Z</time>
      </trkpt>
      <trkpt lat="49.15786" lon="1.8515">
        <ele>115</ele>
        <time>2024-05-05T14:37:29Z</time>
      </trkpt>
      <trkpt lat="49.15788" lon="1.85219">
        <ele>116</ele>
        <time>2024-05-05T14:38:30Z</time>
      </trkpt>
      <trkpt lat="49.15793" lon="1.8524">
        <ele>116</ele>
        <time>2024-05-05T14:38:49Z</time>
      </trkpt>
      <trkpt lat="49.15833" lon="1.85329">
        <ele>116</ele>
        <time>2024-05-05T14:40:24Z</time>
      </trkpt>
      <trkpt lat="49.15837" lon="1.85338">
        <ele>116</ele>
        <time>2024-05-05T14:40:33Z</time>
      </trkpt>
      <trkpt lat="49.15778" lon="1.85376">
        <ele>118</ele>
        <time>2024-05-05T14:41:58Z</time>
      </trkpt>
      <trkpt lat="49.15775" lon="1.85477">
        <ele>119</ele>
        <time>2024-05-05T14:43:27Z</time>
      </trkpt>
      <trkpt lat="49.15779" lon="1.85474">
        <ele>119</ele>
        <time>2024-05-05T14:43:33Z</time>
      </trkpt>
      <trkpt lat="49.15775" lon="1.85595">
        <ele>120</ele>
        <time>2024-05-05T14:45:18Z</time>
      </trkpt>
      <trkpt lat="49.15775" lon="1.85636">
        <ele>119</ele>
        <time>2024-05-05T14:45:54Z</time>
      </trkpt>
      <trkpt lat="49.15777" lon="1.85656">
        <ele>119</ele>
        <time>2024-05-05T14:46:12Z</time>
      </trkpt>
      <trkpt lat="49.15792" lon="1.85737">
        <ele>118</ele>
        <time>2024-05-05T14:47:25Z</time>
      </trkpt>
      <trkpt lat="49.15804" lon="1.85829">
        <ele>117</ele>
        <time>2024-05-05T14:48:47Z</time>
      </trkpt>
      <trkpt lat="49.15817" lon="1.85907">
        <ele>115</ele>
        <time>2024-05-05T14:49:57Z</time>
      </trkpt>
      <trkpt lat="49.15817" lon="1.85923">
        <ele>115</ele>
        <time>2024-05-05T14:50:11Z</time>
      </trkpt>
      <trkpt lat="49.15805" lon="1.86045">
        <ele>115</ele>
        <time>2024-05-05T14:51:59Z</time>
      </trkpt>
      <trkpt lat="49.15799" lon="1.86127">
        <ele>117</ele>
        <time>2024-05-05T14:53:11Z</time>
      </trkpt>
      <trkpt lat="49.15798" lon="1.8619">
        <ele>119</ele>
        <time>2024-05-05T14:54:06Z</time>
      </trkpt>
      <trkpt lat="49.158" lon="1.8623">
        <ele>120</ele>
        <time>2024-05-05T14:54:41Z</time>
      </trkpt>
      <trkpt lat="49.15881" lon="1.86474">
        <ele>119</ele>
        <time>2024-05-05T14:58:40Z</time>
      </trkpt>
      <trkpt lat="49.15902" lon="1.86554">
        <ele>118</ele>
        <time>2024-05-05T14:59:55Z</time>
      </trkpt>
      <trkpt lat="49.15913" lon="1.86623">
        <ele>117</ele>
        <time>2024-05-05T15:00:57Z</time>
      </trkpt>
      <trkpt lat="49.15922" lon="1.8666">
        <ele>117</ele>
        <time>2024-05-05T15:01:31Z</time>
      </trkpt>
      <trkpt lat="49.1593" lon="1.86681">
        <ele>116</ele>
        <time>2024-05-05T15:01:53Z</time>
      </trkpt>
      <trkpt lat="49.1597" lon="1.86758">
        <ele>114</ele>
        <time>2024-05-05T15:03:19Z</time>
      </trkpt>
      <trkpt lat="49.15979" lon="1.86794">
        <ele>114</ele>
        <time>2024-05-05T15:03:52Z</time>
      </trkpt>
      <trkpt lat="49.15986" lon="1.86849">
        <ele>114</ele>
        <time>2024-05-05T15:04:41Z</time>
      </trkpt>
      <trkpt lat="49.15989" lon="1.86901">
        <ele>113</ele>
        <time>2024-05-05T15:05:27Z</time>
      </trkpt>
      <trkpt lat="49.15998" lon="1.86975">
        <ele>113</ele>
        <time>2024-05-05T15:06:32Z</time>
      </trkpt>
      <trkpt lat="49.16016" lon="1.87169">
        <ele>113</ele>
        <time>2024-05-05T15:09:23Z</time>
      </trkpt>
      <trkpt lat="49.16051" lon="1.87353">
        <ele>113</ele>
        <time>2024-05-05T15:12:11Z</time>
      </trkpt>
      <trkpt lat="49.16078" lon="1.87456">
        <ele>114</ele>
        <time>2024-05-05T15:13:47Z</time>
      </trkpt>
      <trkpt lat="49.16119" lon="1.87599">
        <ele>115</ele>
        <time>2024-05-05T15:16:04Z</time>
      </trkpt>
      <trkpt lat="49.16143" lon="1.87714">
        <ele>116</ele>
        <time>2024-05-05T15:17:49Z</time>
      </trkpt>
      <trkpt lat="49.1615" lon="1.87774">
        <ele>117</ele>
        <time>2024-05-05T15:18:42Z</time>
      </trkpt>
      <trkpt lat="49.16155" lon="1.87865">
        <ele>117</ele>
        <time>2024-05-05T15:20:02Z</time>
      </trkpt>
      <trkpt lat="49.16154" lon="1.8796">
        <ele>118</ele>
        <time>2024-05-05T15:21:25Z</time>
      </trkpt>
      <trkpt lat="49.16142" lon="1.88153">
        <ele>119</ele>
        <time>2024-05-05T15:24:14Z</time>
      </trkpt>
      <trkpt lat="49.1614" lon="1.88283">
        <ele>119</ele>
        <time>2024-05-05T15:26:07Z</time>
      </trkpt>
      <trkpt lat="49.16153" lon="1.88285">
        <ele>119</ele>
        <time>2024-05-05T15:26:25Z</time>
      </trkpt>
      <trkpt lat="49.16153" lon="1.88306">
        <ele>118</ele>
        <time>2024-05-05T15:26:43Z</time>
      </trkpt>
      <trkpt lat="49.1624" lon="1.88669">
        <ele>116</ele>
        <time>2024-05-05T15:32:21Z</time>
      </trkpt>
      <trkpt lat="49.16252" lon="1.88755">
        <ele>116</ele>
        <time>2024-05-05T15:33:37Z</time>
      </trkpt>
      <trkpt lat="49.16264" lon="1.88877">
        <ele>117</ele>
        <time>2024-05-05T15:35:25Z</time>
      </trkpt>
      <trkpt lat="49.16279" lon="1.88974">
        <ele>116</ele>
        <time>2024-05-05T15:36:52Z</time>
      </trkpt>
      <trkpt lat="49.16286" lon="1.89007">
        <ele>116</ele>
        <time>2024-05-05T15:37:22Z</time>
      </trkpt>
      <trkpt lat="49.16292" lon="1.89025">
        <ele>116</ele>
        <time>2024-05-05T15:37:40Z</time>
      </trkpt>
      <trkpt lat="49.16286" lon="1.89007">
        <ele>116</ele>
        <time>2024-05-05T15:37:57Z</time>
      </trkpt>
      <trkpt lat="49.15947" lon="1.88781">
        <ele>114</ele>
        <time>2024-05-05T15:46:11Z</time>
      </trkpt>
      <trkpt lat="49.15879" lon="1.88741">
        <ele>114</ele>
        <time>2024-05-05T15:47:48Z</time>
      </trkpt>
      <trkpt lat="49.1581" lon="1.88704">
        <ele>113</ele>
        <time>2024-05-05T15:49:26Z</time>
      </trkpt>
      <trkpt lat="49.15779" lon="1.8869">
        <ele>114</ele>
        <time>2024-05-05T15:50:09Z</time>
      </trkpt>
      <trkpt lat="49.156" lon="1.8864">
        <ele>114</ele>
        <time>2024-05-05T15:54:12Z</time>
      </trkpt>
      <trkpt lat="49.15523" lon="1.88619">
        <ele>114</ele>
        <time>2024-05-05T15:55:56Z</time>
      </trkpt>
      <trkpt lat="49.15511" lon="1.88618">
        <ele>115</ele>
        <time>2024-05-05T15:56:12Z</time>
      </trkpt>
      <trkpt lat="49.15474" lon="1.88569">
        <ele>114</ele>
        <time>2024-05-05T15:57:17Z</time>
      </trkpt>
      <trkpt lat="49.15419" lon="1.8852">
        <ele>112</ele>
        <time>2024-05-05T15:58:42Z</time>
      </trkpt>
      <trkpt lat="49.15393" lon="1.88482">
        <ele>112</ele>
        <time>2024-05-05T15:59:30Z</time>
      </trkpt>
      <trkpt lat="49.1538" lon="1.88466">
        <ele>112</ele>
        <time>2024-05-05T15:59:53Z</time>
      </trkpt>
      <trkpt lat="49.15375" lon="1.8846">
        <ele>112</ele>
        <time>2024-05-05T16:00:01Z</time>
      </trkpt>
      <trkpt lat="49.15367" lon="1.88458">
        <ele>112</ele>
        <time>2024-05-05T16:00:12Z</time>
      </trkpt>
      <trkpt lat="49.15359" lon="1.88461">
        <ele>112</ele>
        <time>2024-05-05T16:00:23Z</time>
      </trkpt>
      <trkpt lat="49.15285" lon="1.88533">
        <ele>112</ele>
        <time>2024-05-05T16:02:20Z</time>
      </trkpt>
      <trkpt lat="49.15236" lon="1.88579">
        <ele>113</ele>
        <time>2024-05-05T16:03:37Z</time>
      </trkpt>
      <trkpt lat="49.15118" lon="1.88662">
        <ele>113</ele>
        <time>2024-05-05T16:06:30Z</time>
      </trkpt>
      <trkpt lat="49.15101" lon="1.88665">
        <ele>113</ele>
        <time>2024-05-05T16:06:53Z</time>
      </trkpt>
      <trkpt lat="49.15086" lon="1.8866">
        <ele>113</ele>
        <time>2024-05-05T16:07:13Z</time>
      </trkpt>
      <trkpt lat="49.15041" lon="1.88614">
        <ele>112</ele>
        <time>2024-05-05T16:08:26Z</time>
      </trkpt>
      <trkpt lat="49.15019" lon="1.88585">
        <ele>111</ele>
        <time>2024-05-05T16:09:04Z</time>
      </trkpt>
      <trkpt lat="49.15012" lon="1.8858">
        <ele>111</ele>
        <time>2024-05-05T16:09:15Z</time>
      </trkpt>
      <trkpt lat="49.15012" lon="1.8857">
        <ele>111</ele>
        <time>2024-05-05T16:09:23Z</time>
      </trkpt>
      <trkpt lat="49.15008" lon="1.88562">
        <ele>111</ele>
        <time>2024-05-05T16:09:32Z</time>
      </trkpt>
      <trkpt lat="49.14998" lon="1.88542">
        <ele>110</ele>
        <time>2024-05-05T16:09:54Z</time>
      </trkpt>
      <trkpt lat="49.14993" lon="1.88531">
        <ele>110</ele>
        <time>2024-05-05T16:10:06Z</time>
      </trkpt>
      <trkpt lat="49.14995" lon="1.8853">
        <ele>110</ele>
        <time>2024-05-05T16:10:09Z</time>
      </trkpt>
      <trkpt lat="49.14947" lon="1.88442">
        <ele>108</ele>
        <time>2024-05-05T16:11:49Z</time>
      </trkpt>
      <trkpt lat="49.14925" lon="1.88409">
        <ele>107</ele>
        <time>2024-05-05T16:12:30Z</time>
      </trkpt>
      <trkpt lat="49.14912" lon="1.88398">
        <ele>106</ele>
        <time>2024-05-05T16:12:50Z</time>
      </trkpt>
      <trkpt lat="49.14878" lon="1.8839">
        <ele>106</ele>
        <time>2024-05-05T16:13:36Z</time>
      </trkpt>
      <trkpt lat="49.1486" lon="1.88381">
        <ele>105</ele>
        <time>2024-05-05T16:14:01Z</time>
      </trkpt>
      <trkpt lat="49.14822" lon="1.88348">
        <ele>105</ele>
        <time>2024-05-05T16:14:59Z</time>
      </trkpt>
      <trkpt lat="49.1463" lon="1.88129">
        <ele>106</ele>
        <time>2024-05-05T16:20:19Z</time>
      </trkpt>
      <trkpt lat="49.14591" lon="1.88074">
        <ele>106</ele>
        <time>2024-05-05T16:21:30Z</time>
      </trkpt>
      <trkpt lat="49.1456" lon="1.88016">
        <ele>107</ele>
        <time>2024-05-05T16:22:35Z</time>
      </trkpt>
      <trkpt lat="49.1453" lon="1.87949">
        <ele>108</ele>
        <time>2024-05-05T16:23:46Z</time>
      </trkpt>
      <trkpt lat="49.14421" lon="1.87576">
        <ele>112</ele>
        <time>2024-05-05T16:29:42Z</time>
      </trkpt>
      <trkpt lat="49.14277" lon="1.87231">
        <ele>111</ele>
        <time>2024-05-05T16:35:40Z</time>
      </trkpt>
      <trkpt lat="49.14189" lon="1.8702">
        <ele>112</ele>
        <time>2024-05-05T16:39:18Z</time>
      </trkpt>
      <trkpt lat="49.13981" lon="1.86593">
        <ele>118</ele>
        <time>2024-05-05T16:47:03Z</time>
      </trkpt>
      <trkpt lat="49.13844" lon="1.86393">
        <ele>121</ele>
        <time>2024-05-05T16:51:16Z</time>
      </trkpt>
      <trkpt lat="49.13757" lon="1.86245">
        <ele>120</ele>
        <time>2024-05-05T16:54:09Z</time>
      </trkpt>
      <trkpt lat="49.13411" lon="1.85787">
        <ele>126</ele>
        <time>2024-05-05T17:04:20Z</time>
      </trkpt>
      <trkpt lat="49.13377" lon="1.8575">
        <ele>127</ele>
        <time>2024-05-05T17:05:16Z</time>
      </trkpt>
      <trkpt lat="49.13351" lon="1.85725">
        <ele>128</ele>
        <time>2024-05-05T17:05:57Z</time>
      </trkpt>
      <trkpt lat="49.13323" lon="1.85704">
        <ele>130</ele>
        <time>2024-05-05T17:06:39Z</time>
      </trkpt>
      <trkpt lat="49.133" lon="1.85692">
        <ele>131</ele>
        <time>2024-05-05T17:07:11Z</time>
      </trkpt>
      <trkpt lat="49.1329" lon="1.85691">
        <ele>132</ele>
        <time>2024-05-05T17:07:24Z</time>
      </trkpt>
      <trkpt lat="49.13278" lon="1.85694">
        <ele>132</ele>
        <time>2024-05-05T17:07:41Z</time>
      </trkpt>
      <trkpt lat="49.13264" lon="1.85704">
        <ele>133</ele>
        <time>2024-05-05T17:08:01Z</time>
      </trkpt>
      <trkpt lat="49.13254" lon="1.85716">
        <ele>134</ele>
        <time>2024-05-05T17:08:18Z</time>
      </trkpt>
      <trkpt lat="49.13234" lon="1.85782">
        <ele>134</ele>
        <time>2024-05-05T17:09:22Z</time>
      </trkpt>
      <trkpt lat="49.13183" lon="1.85892">
        <ele>134</ele>
        <time>2024-05-05T17:11:19Z</time>
      </trkpt>
      <trkpt lat="49.13158" lon="1.85941">
        <ele>134</ele>
        <time>2024-05-05T17:12:14Z</time>
      </trkpt>
      <trkpt lat="49.13148" lon="1.85955">
        <ele>134</ele>
        <time>2024-05-05T17:12:32Z</time>
      </trkpt>
      <trkpt lat="49.13135" lon="1.85968">
        <ele>134</ele>
        <time>2024-05-05T17:12:53Z</time>
      </trkpt>
      <trkpt lat="49.13105" lon="1.85984">
        <ele>134</ele>
        <time>2024-05-05T17:13:35Z</time>
      </trkpt>
      <trkpt lat="49.13076" lon="1.86004">
        <ele>133</ele>
        <time>2024-05-05T17:14:17Z</time>
      </trkpt>
      <trkpt lat="49.13067" lon="1.86001">
        <ele>133</ele>
        <time>2024-05-05T17:14:30Z</time>
      </trkpt>
      <trkpt lat="49.13046" lon="1.86017">
        <ele>132</ele>
        <time>2024-05-05T17:15:01Z</time>
      </trkpt>
      <trkpt lat="49.13006" lon="1.86078">
        <ele>130</ele>
        <time>2024-05-05T17:16:16Z</time>
      </trkpt>
      <trkpt lat="49.12969" lon="1.86184">
        <ele>127</ele>
        <time>2024-05-05T17:18:01Z</time>
      </trkpt>
      <trkpt lat="49.12875" lon="1.86424">
        <ele>122</ele>
        <time>2024-05-05T17:22:06Z</time>
      </trkpt>
      <trkpt lat="49.12845" lon="1.86487">
        <ele>121</ele>
        <time>2024-05-05T17:23:14Z</time>
      </trkpt>
      <trkpt lat="49.1284" lon="1.86482">
        <ele>121</ele>
        <time>2024-05-05T17:23:22Z</time>
      </trkpt>
      <trkpt lat="49.12845" lon="1.86487">
        <ele>121</ele>
        <time>2024-05-05T17:23:30Z</time>
      </trkpt>
      <trkpt lat="49.12706" lon="1.86814">
        <ele>124</ele>
        <time>2024-05-05T17:29:10Z</time>
      </trkpt>
      <trkpt lat="49.12692" lon="1.87492">
        <ele>116</ele>
        <time>2024-05-05T17:39:02Z</time>
      </trkpt>
      <trkpt lat="49.12693" lon="1.87553">
        <ele>116</ele>
        <time>2024-05-05T17:39:56Z</time>
      </trkpt>
      <trkpt lat="49.12709" lon="1.87672">
        <ele>116</ele>
        <time>2024-05-05T17:41:42Z</time>
      </trkpt>
      <trkpt lat="49.12711" lon="1.87753">
        <ele>117</ele>
        <time>2024-05-05T17:42:53Z</time>
      </trkpt>
      <trkpt lat="49.12692" lon="1.87948">
        <ele>115</ele>
        <time>2024-05-05T17:45:45Z</time>
      </trkpt>
      <trkpt lat="49.12656" lon="1.88379">
        <ele>107</ele>
        <time>2024-05-05T17:52:04Z</time>
      </trkpt>
      <trkpt lat="49.12647" lon="1.88437">
        <ele>107</ele>
        <time>2024-05-05T17:52:56Z</time>
      </trkpt>
      <trkpt lat="49.12578" lon="1.88695">
        <ele>107</ele>
        <time>2024-05-05T17:57:00Z</time>
      </trkpt>
      <trkpt lat="49.12567" lon="1.88734">
        <ele>107</ele>
        <time>2024-05-05T17:57:37Z</time>
      </trkpt>
      <trkpt lat="49.12548" lon="1.88728">
        <ele>107</ele>
        <time>2024-05-05T17:58:03Z</time>
      </trkpt>
      <trkpt lat="49.1252" lon="1.88714">
        <ele>106</ele>
        <time>2024-05-05T17:58:42Z</time>
      </trkpt>
      <trkpt lat="49.12513" lon="1.88711">
        <ele>105</ele>
        <time>2024-05-05T17:58:52Z</time>
      </trkpt>
      <trkpt lat="49.12505" lon="1.88705">
        <ele>105</ele>
        <time>2024-05-05T17:59:03Z</time>
      </trkpt>
      <trkpt lat="49.12495" lon="1.88704">
        <ele>105</ele>
        <time>2024-05-05T17:59:17Z</time>
      </trkpt>
      <trkpt lat="49.12487" lon="1.88692">
        <ele>105</ele>
        <time>2024-05-05T17:59:32Z</time>
      </trkpt>
      <trkpt lat="49.12452" lon="1.88604">
        <ele>105</ele>
        <time>2024-05-05T18:01:02Z</time>
      </trkpt>
      <trkpt lat="49.12431" lon="1.88538">
        <ele>105</ele>
        <time>2024-05-05T18:02:06Z</time>
      </trkpt>
      <trkpt lat="49.12419" lon="1.88485">
        <ele>106</ele>
        <time>2024-05-05T18:02:55Z</time>
      </trkpt>
      <trkpt lat="49.12391" lon="1.88331">
        <ele>108</ele>
        <time>2024-05-05T18:05:14Z</time>
      </trkpt>
      <trkpt lat="49.12383" lon="1.883">
        <ele>107</ele>
        <time>2024-05-05T18:05:44Z</time>
      </trkpt>
      <trkpt lat="49.12366" lon="1.88243">
        <ele>107</ele>
        <time>2024-05-05T18:06:38Z</time>
      </trkpt>
      <trkpt lat="49.12358" lon="1.88223">
        <ele>107</ele>
        <time>2024-05-05T18:06:59Z</time>
      </trkpt>
      <trkpt lat="49.1234" lon="1.88186">
        <ele>108</ele>
        <time>2024-05-05T18:07:39Z</time>
      </trkpt>
      <trkpt lat="49.12277" lon="1.88088">
        <ele>109</ele>
        <time>2024-05-05T18:09:39Z</time>
      </trkpt>
      <trkpt lat="49.12226" lon="1.87986">
        <ele>111</ele>
        <time>2024-05-05T18:11:31Z</time>
      </trkpt>
      <trkpt lat="49.12213" lon="1.88009">
        <ele>111</ele>
        <time>2024-05-05T18:11:58Z</time>
      </trkpt>
      <trkpt lat="49.12226" lon="1.87986">
        <ele>111</ele>
        <time>2024-05-05T18:12:24Z</time>
      </trkpt>
      <trkpt lat="49.12186" lon="1.87901">
        <ele>113</ele>
        <time>2024-05-05T18:13:56Z</time>
      </trkpt>
      <trkpt lat="49.12144" lon="1.87792">
        <ele>115</ele>
        <time>2024-05-05T18:15:46Z</time>
      </trkpt>
      <trkpt lat="49.12125" lon="1.87746">
        <ele>116</ele>
        <time>2024-05-05T18:16:34Z</time>
      </trkpt>
      <trkpt lat="49.1196" lon="1.87437">
        <ele>122</ele>
        <time>2024-05-05T18:22:22Z</time>
      </trkpt>
      <trkpt lat="49.11897" lon="1.87301">
        <ele>123</ele>
        <time>2024-05-05T18:24:47Z</time>
      </trkpt>
      <trkpt lat="49.1188" lon="1.8727">
        <ele>123</ele>
        <time>2024-05-05T18:25:23Z</time>
      </trkpt>
      <trkpt lat="49.11851" lon="1.87224">
        <ele>123</ele>
        <time>2024-05-05T18:26:18Z</time>
      </trkpt>
      <trkpt lat="49.11835" lon="1.87204">
        <ele>124</ele>
        <time>2024-05-05T18:26:46Z</time>
      </trkpt>
      <trkpt lat="49.1168" lon="1.87029">
        <ele>131</ele>
        <time>2024-05-05T18:31:03Z</time>
      </trkpt>
      <trkpt lat="49.11653" lon="1.86992">
        <ele>133</ele>
        <time>2024-05-05T18:31:52Z</time>
      </trkpt>
      <trkpt lat="49.11631" lon="1.86954">
        <ele>134</ele>
        <time>2024-05-05T18:32:36Z</time>
      </trkpt>
      <trkpt lat="49.11506" lon="1.86709">
        <ele>139</ele>
        <time>2024-05-05T18:37:07Z</time>
      </trkpt>
      <trkpt lat="49.11436" lon="1.86559">
        <ele>140</ele>
        <time>2024-05-05T18:39:48Z</time>
      </trkpt>
      <trkpt lat="49.1132" lon="1.86364">
        <ele>139</ele>
        <time>2024-05-05T18:43:38Z</time>
      </trkpt>
      <trkpt lat="49.11204" lon="1.86183">
        <ele>138</ele>
        <time>2024-05-05T18:47:20Z</time>
      </trkpt>
      <trkpt lat="49.11174" lon="1.86132">
        <ele>137</ele>
        <time>2024-05-05T18:48:19Z</time>
      </trkpt>
      <trkpt lat="49.11158" lon="1.86092">
        <ele>136</ele>
        <time>2024-05-05T18:49:00Z</time>
      </trkpt>
      <trkpt lat="49.11119" lon="1.85976">
        <ele>131</ele>
        <time>2024-05-05T18:50:54Z</time>
      </trkpt>
      <trkpt lat="49.11027" lon="1.85697">
        <ele>124</ele>
        <time>2024-05-05T18:55:27Z</time>
      </trkpt>
      <trkpt lat="49.10984" lon="1.85573">
        <ele>118</ele>
        <time>2024-05-05T18:57:30Z</time>
      </trkpt>
      <trkpt lat="49.10978" lon="1.85546">
        <ele>117</ele>
        <time>2024-05-05T18:57:55Z</time>
      </trkpt>
      <trkpt lat="49.10977" lon="1.85523">
        <ele>117</ele>
        <time>2024-05-05T18:58:15Z</time>
      </trkpt>
      <trkpt lat="49.1099" lon="1.85379">
        <ele>117</ele>
        <time>2024-05-05T19:00:22Z</time>
      </trkpt>
      <trkpt lat="49.10991" lon="1.85344">
        <ele>116</ele>
        <time>2024-05-05T19:00:52Z</time>
      </trkpt>
      <trkpt lat="49.10991" lon="1.85316">
        <ele>114</ele>
        <time>2024-05-05T19:01:17Z</time>
      </trkpt>
      <trkpt lat="49.10983" lon="1.85239">
        <ele>110</ele>
        <time>2024-05-05T19:02:25Z</time>
      </trkpt>
      <trkpt lat="49.10984" lon="1.85175">
        <ele>106</ele>
        <time>2024-05-05T19:03:21Z</time>
      </trkpt>
      <trkpt lat="49.10982" lon="1.85167">
        <ele>105</ele>
        <time>2024-05-05T19:03:28Z</time>
      </trkpt>
      <trkpt lat="49.10908" lon="1.85079">
        <ele>96</ele>
        <time>2024-05-05T19:05:34Z</time>
      </trkpt>
      <trkpt lat="49.1088" lon="1.85014">
        <ele>96</ele>
        <time>2024-05-05T19:06:42Z</time>
      </trkpt>
      <trkpt lat="49.10867" lon="1.84996">
        <ele>96</ele>
        <time>2024-05-05T19:07:05Z</time>
      </trkpt>
      <trkpt lat="49.10813" lon="1.84946">
        <ele>96</ele>
        <time>2024-05-05T19:08:29Z</time>
      </trkpt>
      <trkpt lat="49.10804" lon="1.8497">
        <ele>97</ele>
        <time>2024-05-05T19:08:53Z</time>
      </trkpt>
    </trkseg>
  </trk>
</gpx>